<?xml version="1.0" encoding="UTF-8" standalone="no" ?>
<gpx xmlns="http://www.topografix.com/GPX/1/1" xmlns:xsi="http://www.w3.org/2001/XMLSchema-instance" xsi:schemaLocation="http://www.topografix.com/GPX/1/1 http://www.topografix.com/GPX/1/1/gpx.xsd" version="1.1" creator="VisuGPX - https://www.visugpx.com">
  <metadata>
    <name>J3 Aix StLaurent la Prée</name>
    <desc><![CDATA[gnerando idor:81764008_13786731_20053845]]></desc>
  </metadata>
  <trk>
    <name><![CDATA[17 St Laurent de la Prée Marais 12km-13786731]]></name>
    <extensions>
      <line xmlns="http://www.topografix.com/GPX/gpx_style/0/2">
        <color>0000FF</color>
        <width>4</width>
      </line>
    </extensions>
    <trkseg>
      <trkpt lat="45.97995" lon="-1.04053">
        <ele>5</ele>
        <time>2025-01-08T12:08:47.700Z</time>
      </trkpt>
      <trkpt lat="45.97969" lon="-1.03996">
        <ele>4</ele>
        <time>2025-01-08T12:08:54.633Z</time>
      </trkpt>
      <trkpt lat="45.97942" lon="-1.03901">
        <ele>3</ele>
        <time>2025-01-08T12:09:05.716Z</time>
      </trkpt>
      <trkpt lat="45.98005" lon="-1.03805">
        <ele>3</ele>
        <time>2025-01-08T12:09:21.910Z</time>
      </trkpt>
      <trkpt lat="45.9802" lon="-1.03768">
        <ele>3</ele>
        <time>2025-01-08T12:09:27.163Z</time>
      </trkpt>
      <trkpt lat="45.98033" lon="-1.03653">
        <ele>3</ele>
        <time>2025-01-08T12:09:41.452Z</time>
      </trkpt>
      <trkpt lat="45.98044" lon="-1.03597">
        <ele>3</ele>
        <time>2025-01-08T12:09:48.589Z</time>
      </trkpt>
      <trkpt lat="45.98149" lon="-1.03374">
        <ele>4</ele>
        <time>2025-01-08T12:10:23.377Z</time>
      </trkpt>
      <trkpt lat="45.98237" lon="-1.03184">
        <ele>3</ele>
        <time>2025-01-08T12:10:49.782Z</time>
      </trkpt>
      <trkpt lat="45.98293" lon="-1.03075">
        <ele>4</ele>
        <time>2025-01-08T12:11:08.237Z</time>
      </trkpt>
      <trkpt lat="45.98182" lon="-1.03004">
        <ele>1</ele>
        <time>2025-01-08T12:11:25.499Z</time>
      </trkpt>
      <trkpt lat="45.97791" lon="-1.03249">
        <ele>2</ele>
        <time>2025-01-08T12:12:42.472Z</time>
      </trkpt>
      <trkpt lat="45.97484" lon="-1.03448">
        <ele>1</ele>
        <time>2025-01-08T12:13:40.258Z</time>
      </trkpt>
      <trkpt lat="45.97162" lon="-1.03192">
        <ele>3</ele>
        <time>2025-01-08T12:14:48.691Z</time>
      </trkpt>
      <trkpt lat="45.96709" lon="-1.02829">
        <ele>1</ele>
        <time>2025-01-08T12:16:16.947Z</time>
      </trkpt>
      <trkpt lat="45.96438" lon="-1.02617">
        <ele>1</ele>
        <time>2025-01-08T12:17:11.387Z</time>
      </trkpt>
      <trkpt lat="45.96318" lon="-1.03179">
        <ele>3</ele>
        <time>2025-01-08T12:18:27.003Z</time>
      </trkpt>
      <trkpt lat="45.96265" lon="-1.03391">
        <ele>2</ele>
        <time>2025-01-08T12:18:53.046Z</time>
      </trkpt>
      <trkpt lat="45.96288" lon="-1.03588">
        <ele>1</ele>
        <time>2025-01-08T12:19:15.967Z</time>
      </trkpt>
      <trkpt lat="45.96267" lon="-1.03713">
        <ele>2</ele>
        <time>2025-01-08T12:19:33.583Z</time>
      </trkpt>
      <trkpt lat="45.96225" lon="-1.03807">
        <ele>1</ele>
        <time>2025-01-08T12:19:45.773Z</time>
      </trkpt>
      <trkpt lat="45.96168" lon="-1.04035">
        <ele>4</ele>
        <time>2025-01-08T12:20:21.340Z</time>
      </trkpt>
      <trkpt lat="45.96119" lon="-1.04377">
        <ele>1</ele>
        <time>2025-01-08T12:20:59.607Z</time>
      </trkpt>
      <trkpt lat="45.96136" lon="-1.04438">
        <ele>2</ele>
        <time>2025-01-08T12:21:09.688Z</time>
      </trkpt>
      <trkpt lat="45.96109" lon="-1.04526">
        <ele>3</ele>
        <time>2025-01-08T12:21:23.389Z</time>
      </trkpt>
      <trkpt lat="45.96043" lon="-1.04511">
        <ele>2</ele>
        <time>2025-01-08T12:21:33.686Z</time>
      </trkpt>
      <trkpt lat="45.95765" lon="-1.05412">
        <ele>3</ele>
        <time>2025-01-08T12:23:36.324Z</time>
      </trkpt>
      <trkpt lat="45.95659" lon="-1.05955">
        <ele>2</ele>
        <time>2025-01-08T12:24:43.878Z</time>
      </trkpt>
      <trkpt lat="45.95647" lon="-1.06131">
        <ele>1</ele>
        <time>2025-01-08T12:25:04.001Z</time>
      </trkpt>
      <trkpt lat="45.95619" lon="-1.06256">
        <ele>3</ele>
        <time>2025-01-08T12:25:24.151Z</time>
      </trkpt>
      <trkpt lat="45.95624" lon="-1.06307">
        <ele>3</ele>
        <time>2025-01-08T12:25:30.471Z</time>
      </trkpt>
      <trkpt lat="45.95607" lon="-1.06496">
        <ele>1</ele>
        <time>2025-01-08T12:25:50.867Z</time>
      </trkpt>
      <trkpt lat="45.95605" lon="-1.06659">
        <ele>2</ele>
        <time>2025-01-08T12:26:12.673Z</time>
      </trkpt>
      <trkpt lat="45.95698" lon="-1.0697">
        <ele>2</ele>
        <time>2025-01-08T12:26:54.210Z</time>
      </trkpt>
      <trkpt lat="45.95722" lon="-1.06961">
        <ele>2</ele>
        <time>2025-01-08T12:26:58.587Z</time>
      </trkpt>
      <trkpt lat="45.95724" lon="-1.06986">
        <ele>2</ele>
        <time>2025-01-08T12:27:01.675Z</time>
      </trkpt>
      <trkpt lat="45.95758" lon="-1.07076">
        <ele>2</ele>
        <time>2025-01-08T12:27:14.242Z</time>
      </trkpt>
      <trkpt lat="45.95829" lon="-1.07303">
        <ele>3.1</ele>
        <time>2025-01-08T12:27:46.725Z</time>
      </trkpt>
      <trkpt lat="45.95888" lon="-1.07479">
        <ele>2</ele>
        <time>2025-01-08T12:28:08.966Z</time>
      </trkpt>
      <trkpt lat="45.95919" lon="-1.07452">
        <ele>1</ele>
        <time>2025-01-08T12:28:13.998Z</time>
      </trkpt>
      <trkpt lat="45.95926" lon="-1.07463">
        <ele>1</ele>
        <time>2025-01-08T12:28:15.827Z</time>
      </trkpt>
      <trkpt lat="45.95939" lon="-1.07465">
        <ele>1</ele>
        <time>2025-01-08T12:28:18.135Z</time>
      </trkpt>
      <trkpt lat="45.9605" lon="-1.07727">
        <ele>1</ele>
        <time>2025-01-08T12:28:55.777Z</time>
      </trkpt>
      <trkpt lat="45.96073" lon="-1.07756">
        <ele>1</ele>
        <time>2025-01-08T12:29:01.175Z</time>
      </trkpt>
      <trkpt lat="45.96114" lon="-1.07715">
        <ele>2</ele>
        <time>2025-01-08T12:29:11.973Z</time>
      </trkpt>
      <trkpt lat="45.9613" lon="-1.07701">
        <ele>2</ele>
        <time>2025-01-08T12:29:15.278Z</time>
      </trkpt>
      <trkpt lat="45.96154" lon="-1.07696">
        <ele>2</ele>
        <time>2025-01-08T12:29:19.558Z</time>
      </trkpt>
      <trkpt lat="45.96222" lon="-1.07666">
        <ele>1</ele>
        <time>2025-01-08T12:29:30.606Z</time>
      </trkpt>
      <trkpt lat="45.96448" lon="-1.07555">
        <ele>1</ele>
        <time>2025-01-08T12:30:12.751Z</time>
      </trkpt>
      <trkpt lat="45.96458" lon="-1.0754">
        <ele>1</ele>
        <time>2025-01-08T12:30:15.301Z</time>
      </trkpt>
      <trkpt lat="45.96455" lon="-1.07518">
        <ele>1</ele>
        <time>2025-01-08T12:30:18.051Z</time>
      </trkpt>
      <trkpt lat="45.96445" lon="-1.07488">
        <ele>1</ele>
        <time>2025-01-08T12:30:22.133Z</time>
      </trkpt>
      <trkpt lat="45.96449" lon="-1.07471">
        <ele>2</ele>
        <time>2025-01-08T12:30:27.879Z</time>
      </trkpt>
      <trkpt lat="45.9646" lon="-1.07468">
        <ele>2</ele>
        <time>2025-01-08T12:30:29.855Z</time>
      </trkpt>
      <trkpt lat="45.9648" lon="-1.07469">
        <ele>1</ele>
        <time>2025-01-08T12:30:32.213Z</time>
      </trkpt>
      <trkpt lat="45.96493" lon="-1.07454">
        <ele>2</ele>
        <time>2025-01-08T12:30:38.056Z</time>
      </trkpt>
      <trkpt lat="45.96616" lon="-1.07288">
        <ele>2.9</ele>
        <time>2025-01-08T12:31:09.398Z</time>
      </trkpt>
      <trkpt lat="45.96711" lon="-1.07155">
        <ele>2</ele>
        <time>2025-01-08T12:31:31.360Z</time>
      </trkpt>
      <trkpt lat="45.96806" lon="-1.07028">
        <ele>2</ele>
        <time>2025-01-08T12:31:54.247Z</time>
      </trkpt>
      <trkpt lat="45.96838" lon="-1.06993">
        <ele>2</ele>
        <time>2025-01-08T12:32:01.341Z</time>
      </trkpt>
      <trkpt lat="45.96861" lon="-1.0698">
        <ele>2</ele>
        <time>2025-01-08T12:32:05.702Z</time>
      </trkpt>
      <trkpt lat="45.96816" lon="-1.06864">
        <ele>3</ele>
        <time>2025-01-08T12:32:23.832Z</time>
      </trkpt>
      <trkpt lat="45.96794" lon="-1.06815">
        <ele>3</ele>
        <time>2025-01-08T12:32:30.987Z</time>
      </trkpt>
      <trkpt lat="45.96762" lon="-1.06761">
        <ele>2</ele>
        <time>2025-01-08T12:32:38.255Z</time>
      </trkpt>
      <trkpt lat="45.96747" lon="-1.06723">
        <ele>2</ele>
        <time>2025-01-08T12:32:43.616Z</time>
      </trkpt>
      <trkpt lat="45.96741" lon="-1.06659">
        <ele>2</ele>
        <time>2025-01-08T12:32:51.537Z</time>
      </trkpt>
      <trkpt lat="45.96739" lon="-1.06558">
        <ele>2</ele>
        <time>2025-01-08T12:33:03.932Z</time>
      </trkpt>
      <trkpt lat="45.96664" lon="-1.06511">
        <ele>2</ele>
        <time>2025-01-08T12:33:18.370Z</time>
      </trkpt>
      <trkpt lat="45.96602" lon="-1.06435">
        <ele>2</ele>
        <time>2025-01-08T12:33:32.745Z</time>
      </trkpt>
      <trkpt lat="45.96573" lon="-1.0635">
        <ele>1</ele>
        <time>2025-01-08T12:33:42.868Z</time>
      </trkpt>
      <trkpt lat="45.96558" lon="-1.06286">
        <ele>1</ele>
        <time>2025-01-08T12:33:51.153Z</time>
      </trkpt>
      <trkpt lat="45.96552" lon="-1.06046">
        <ele>3</ele>
        <time>2025-01-08T12:34:24.318Z</time>
      </trkpt>
      <trkpt lat="45.96501" lon="-1.05698">
        <ele>3</ele>
        <time>2025-01-08T12:35:07.947Z</time>
      </trkpt>
      <trkpt lat="45.96482" lon="-1.05567">
        <ele>2</ele>
        <time>2025-01-08T12:35:22.821Z</time>
      </trkpt>
      <trkpt lat="45.9648" lon="-1.05464">
        <ele>2</ele>
        <time>2025-01-08T12:35:35.461Z</time>
      </trkpt>
      <trkpt lat="45.96432" lon="-1.05394">
        <ele>2</ele>
        <time>2025-01-08T12:35:47.523Z</time>
      </trkpt>
      <trkpt lat="45.96385" lon="-1.05301">
        <ele>2</ele>
        <time>2025-01-08T12:36:01.629Z</time>
      </trkpt>
      <trkpt lat="45.96413" lon="-1.05171">
        <ele>3</ele>
        <time>2025-01-08T12:36:20.155Z</time>
      </trkpt>
      <trkpt lat="45.96423" lon="-1.05101">
        <ele>3</ele>
        <time>2025-01-08T12:36:28.922Z</time>
      </trkpt>
      <trkpt lat="45.96443" lon="-1.05048">
        <ele>2</ele>
        <time>2025-01-08T12:36:34.919Z</time>
      </trkpt>
      <trkpt lat="45.96485" lon="-1.05014">
        <ele>2</ele>
        <time>2025-01-08T12:36:43.425Z</time>
      </trkpt>
      <trkpt lat="45.96532" lon="-1.05001">
        <ele>2</ele>
        <time>2025-01-08T12:36:51.871Z</time>
      </trkpt>
      <trkpt lat="45.9651" lon="-1.0494">
        <ele>2</ele>
        <time>2025-01-08T12:37:00.302Z</time>
      </trkpt>
      <trkpt lat="45.96649" lon="-1.04886">
        <ele>2</ele>
        <time>2025-01-08T12:37:25.712Z</time>
      </trkpt>
      <trkpt lat="45.96665" lon="-1.0487">
        <ele>2</ele>
        <time>2025-01-08T12:37:29.151Z</time>
      </trkpt>
      <trkpt lat="45.96708" lon="-1.04809">
        <ele>3</ele>
        <time>2025-01-08T12:37:41.735Z</time>
      </trkpt>
      <trkpt lat="45.96754" lon="-1.04736">
        <ele>2</ele>
        <time>2025-01-08T12:37:52.323Z</time>
      </trkpt>
      <trkpt lat="45.96809" lon="-1.04687">
        <ele>2</ele>
        <time>2025-01-08T12:38:03.740Z</time>
      </trkpt>
      <trkpt lat="45.96877" lon="-1.0465">
        <ele>2</ele>
        <time>2025-01-08T12:38:16.570Z</time>
      </trkpt>
      <trkpt lat="45.96929" lon="-1.04661">
        <ele>3</ele>
        <time>2025-01-08T12:38:27.814Z</time>
      </trkpt>
      <trkpt lat="45.96948" lon="-1.04688">
        <ele>5</ele>
        <time>2025-01-08T12:38:39.262Z</time>
      </trkpt>
      <trkpt lat="45.97001" lon="-1.0465">
        <ele>4</ele>
        <time>2025-01-08T12:38:48.239Z</time>
      </trkpt>
      <trkpt lat="45.97085" lon="-1.0459">
        <ele>2</ele>
        <time>2025-01-08T12:39:01.938Z</time>
      </trkpt>
      <trkpt lat="45.97144" lon="-1.04524">
        <ele>1</ele>
        <time>2025-01-08T12:39:13.615Z</time>
      </trkpt>
      <trkpt lat="45.97241" lon="-1.04463">
        <ele>1</ele>
        <time>2025-01-08T12:39:32.297Z</time>
      </trkpt>
      <trkpt lat="45.97299" lon="-1.04455">
        <ele>2</ele>
        <time>2025-01-08T12:39:44.517Z</time>
      </trkpt>
      <trkpt lat="45.97352" lon="-1.04412">
        <ele>2</ele>
        <time>2025-01-08T12:39:55.255Z</time>
      </trkpt>
      <trkpt lat="45.97485" lon="-1.04373">
        <ele>1</ele>
        <time>2025-01-08T12:40:17.626Z</time>
      </trkpt>
      <trkpt lat="45.97569" lon="-1.04357">
        <ele>1</ele>
        <time>2025-01-08T12:40:32.580Z</time>
      </trkpt>
      <trkpt lat="45.97651" lon="-1.04309">
        <ele>2</ele>
        <time>2025-01-08T12:40:50.045Z</time>
      </trkpt>
      <trkpt lat="45.97804" lon="-1.04114">
        <ele>2</ele>
        <time>2025-01-08T12:41:26.116Z</time>
      </trkpt>
      <trkpt lat="45.97941" lon="-1.03902">
        <ele>3</ele>
        <time>2025-01-08T12:42:03.368Z</time>
      </trkpt>
      <trkpt lat="45.97979" lon="-1.0401">
        <ele>4</ele>
        <time>2025-01-08T12:42:20.065Z</time>
      </trkpt>
      <trkpt lat="45.97995" lon="-1.04043">
        <ele>4</ele>
        <time>2025-01-08T12:42:25.000Z</time>
        <extensions>
          <visugpx:TrkExtension xmlns:visugpx="https://www.visugpx.com/editgpx/">
            <visugpx:node>1</visugpx:node>
            </visugpx:TrkExtension>
        </extensions>
      </trkpt>
    </trkseg>
  </trk>
  <trk>
    <name><![CDATA[St Laurent des Prée 7,5 km 20053845]]></name>
    <extensions>
      <line xmlns="http://www.topografix.com/GPX/gpx_style/0/2">
        <color>008000</color>
        <width>4</width>
      </line>
    </extensions>
    <trkseg>
      <trkpt lat="45.98035" lon="-1.04124">
        <ele>5</ele>
        <time>2025-01-08T12:42:30Z</time>
      </trkpt>
      <trkpt lat="45.98027" lon="-1.04115">
        <ele>5</ele>
        <time>2025-01-08T12:42:44Z</time>
      </trkpt>
      <trkpt lat="45.98011" lon="-1.04089">
        <ele>5</ele>
        <time>2025-01-08T12:43:16Z</time>
      </trkpt>
      <trkpt lat="45.98" lon="-1.04066">
        <ele>5</ele>
        <time>2025-01-08T12:43:42Z</time>
      </trkpt>
      <trkpt lat="45.97967" lon="-1.03982">
        <ele>4</ele>
        <time>2025-01-08T12:45:11Z</time>
      </trkpt>
      <trkpt lat="45.97944" lon="-1.03916">
        <ele>3</ele>
        <time>2025-01-08T12:46:20Z</time>
      </trkpt>
      <trkpt lat="45.97944" lon="-1.039">
        <ele>3</ele>
        <time>2025-01-08T12:46:34Z</time>
      </trkpt>
      <trkpt lat="45.97939" lon="-1.03907">
        <ele>3</ele>
        <time>2025-01-08T12:46:44Z</time>
      </trkpt>
      <trkpt lat="45.97695" lon="-1.04275">
        <ele>2</ele>
        <time>2025-01-08T12:54:35Z</time>
      </trkpt>
      <trkpt lat="45.9768" lon="-1.04292">
        <ele>2</ele>
        <time>2025-01-08T12:55:01Z</time>
      </trkpt>
      <trkpt lat="45.97659" lon="-1.04305">
        <ele>2</ele>
        <time>2025-01-08T12:55:31Z</time>
      </trkpt>
      <trkpt lat="45.97649" lon="-1.04315">
        <ele>2</ele>
        <time>2025-01-08T12:55:48Z</time>
      </trkpt>
      <trkpt lat="45.97641" lon="-1.04315">
        <ele>2</ele>
        <time>2025-01-08T12:55:58Z</time>
      </trkpt>
      <trkpt lat="45.97606" lon="-1.04332">
        <ele>1</ele>
        <time>2025-01-08T12:56:48Z</time>
      </trkpt>
      <trkpt lat="45.97569" lon="-1.04355">
        <ele>1</ele>
        <time>2025-01-08T12:57:41Z</time>
      </trkpt>
      <trkpt lat="45.97517" lon="-1.04375">
        <ele>1</ele>
        <time>2025-01-08T12:58:53Z</time>
      </trkpt>
      <trkpt lat="45.97396" lon="-1.04405">
        <ele>1</ele>
        <time>2025-01-08T13:01:37Z</time>
      </trkpt>
      <trkpt lat="45.9737" lon="-1.04416">
        <ele>2</ele>
        <time>2025-01-08T13:02:13Z</time>
      </trkpt>
      <trkpt lat="45.97343" lon="-1.04419">
        <ele>2</ele>
        <time>2025-01-08T13:02:49Z</time>
      </trkpt>
      <trkpt lat="45.97326" lon="-1.04426">
        <ele>2</ele>
        <time>2025-01-08T13:03:13Z</time>
      </trkpt>
      <trkpt lat="45.97302" lon="-1.04449">
        <ele>2</ele>
        <time>2025-01-08T13:03:51Z</time>
      </trkpt>
      <trkpt lat="45.97284" lon="-1.0446">
        <ele>2</ele>
        <time>2025-01-08T13:04:18Z</time>
      </trkpt>
      <trkpt lat="45.97244" lon="-1.04469">
        <ele>2</ele>
        <time>2025-01-08T13:05:12Z</time>
      </trkpt>
      <trkpt lat="45.97229" lon="-1.04485">
        <ele>2</ele>
        <time>2025-01-08T13:05:37Z</time>
      </trkpt>
      <trkpt lat="45.97216" lon="-1.04494">
        <ele>2</ele>
        <time>2025-01-08T13:05:56Z</time>
      </trkpt>
      <trkpt lat="45.97166" lon="-1.04506">
        <ele>1</ele>
        <time>2025-01-08T13:07:03Z</time>
      </trkpt>
      <trkpt lat="45.97146" lon="-1.04519">
        <ele>1</ele>
        <time>2025-01-08T13:07:33Z</time>
      </trkpt>
      <trkpt lat="45.97102" lon="-1.04571">
        <ele>2</ele>
        <time>2025-01-08T13:08:49Z</time>
      </trkpt>
      <trkpt lat="45.97065" lon="-1.04611">
        <ele>3</ele>
        <time>2025-01-08T13:09:50Z</time>
      </trkpt>
      <trkpt lat="45.96971" lon="-1.04669">
        <ele>4</ele>
        <time>2025-01-08T13:12:07Z</time>
      </trkpt>
      <trkpt lat="45.96948" lon="-1.04669">
        <ele>4</ele>
        <time>2025-01-08T13:12:38Z</time>
      </trkpt>
      <trkpt lat="45.96908" lon="-1.0465">
        <ele>2</ele>
        <time>2025-01-08T13:13:34Z</time>
      </trkpt>
      <trkpt lat="45.96874" lon="-1.04654">
        <ele>2</ele>
        <time>2025-01-08T13:14:19Z</time>
      </trkpt>
      <trkpt lat="45.96858" lon="-1.04661">
        <ele>2</ele>
        <time>2025-01-08T13:14:42Z</time>
      </trkpt>
      <trkpt lat="45.96835" lon="-1.04677">
        <ele>2</ele>
        <time>2025-01-08T13:15:16Z</time>
      </trkpt>
      <trkpt lat="45.96757" lon="-1.04722">
        <ele>2</ele>
        <time>2025-01-08T13:17:08Z</time>
      </trkpt>
      <trkpt lat="45.96754" lon="-1.04739">
        <ele>2</ele>
        <time>2025-01-08T13:17:24Z</time>
      </trkpt>
      <trkpt lat="45.96743" lon="-1.04754">
        <ele>2</ele>
        <time>2025-01-08T13:17:44Z</time>
      </trkpt>
      <trkpt lat="45.9666" lon="-1.04876">
        <ele>2</ele>
        <time>2025-01-08T13:20:23Z</time>
      </trkpt>
      <trkpt lat="45.96652" lon="-1.04885">
        <ele>3</ele>
        <time>2025-01-08T13:20:36Z</time>
      </trkpt>
      <trkpt lat="45.96643" lon="-1.0489">
        <ele>2</ele>
        <time>2025-01-08T13:20:49Z</time>
      </trkpt>
      <trkpt lat="45.96519" lon="-1.04938">
        <ele>2</ele>
        <time>2025-01-08T13:23:41Z</time>
      </trkpt>
      <trkpt lat="45.96513" lon="-1.04942">
        <ele>2</ele>
        <time>2025-01-08T13:23:49Z</time>
      </trkpt>
      <trkpt lat="45.96514" lon="-1.04955">
        <ele>2</ele>
        <time>2025-01-08T13:24:02Z</time>
      </trkpt>
      <trkpt lat="45.96521" lon="-1.04972">
        <ele>2</ele>
        <time>2025-01-08T13:24:20Z</time>
      </trkpt>
      <trkpt lat="45.96514" lon="-1.04955">
        <ele>2</ele>
        <time>2025-01-08T13:24:38Z</time>
      </trkpt>
      <trkpt lat="45.96513" lon="-1.04942">
        <ele>2</ele>
        <time>2025-01-08T13:24:50Z</time>
      </trkpt>
      <trkpt lat="45.96507" lon="-1.04934">
        <ele>2</ele>
        <time>2025-01-08T13:25:01Z</time>
      </trkpt>
      <trkpt lat="45.96471" lon="-1.04837">
        <ele>3</ele>
        <time>2025-01-08T13:26:43Z</time>
      </trkpt>
      <trkpt lat="45.96442" lon="-1.0476">
        <ele>2</ele>
        <time>2025-01-08T13:28:04Z</time>
      </trkpt>
      <trkpt lat="45.96424" lon="-1.0473">
        <ele>2</ele>
        <time>2025-01-08T13:28:41Z</time>
      </trkpt>
      <trkpt lat="45.96334" lon="-1.04619">
        <ele>2</ele>
        <time>2025-01-08T13:31:19Z</time>
      </trkpt>
      <trkpt lat="45.96309" lon="-1.04601">
        <ele>2</ele>
        <time>2025-01-08T13:31:57Z</time>
      </trkpt>
      <trkpt lat="45.96125" lon="-1.0452">
        <ele>3</ele>
        <time>2025-01-08T13:36:13Z</time>
      </trkpt>
      <trkpt lat="45.96119" lon="-1.04517">
        <ele>3</ele>
        <time>2025-01-08T13:36:22Z</time>
      </trkpt>
      <trkpt lat="45.96115" lon="-1.04513">
        <ele>3</ele>
        <time>2025-01-08T13:36:28Z</time>
      </trkpt>
      <trkpt lat="45.96103" lon="-1.04512">
        <ele>3</ele>
        <time>2025-01-08T13:36:45Z</time>
      </trkpt>
      <trkpt lat="45.96115" lon="-1.04513">
        <ele>3</ele>
        <time>2025-01-08T13:37:01Z</time>
      </trkpt>
      <trkpt lat="45.96116" lon="-1.04497">
        <ele>3</ele>
        <time>2025-01-08T13:37:15Z</time>
      </trkpt>
      <trkpt lat="45.96127" lon="-1.04468">
        <ele>3</ele>
        <time>2025-01-08T13:37:46Z</time>
      </trkpt>
      <trkpt lat="45.96133" lon="-1.04437">
        <ele>2</ele>
        <time>2025-01-08T13:38:16Z</time>
      </trkpt>
      <trkpt lat="45.96134" lon="-1.0442">
        <ele>2</ele>
        <time>2025-01-08T13:38:32Z</time>
      </trkpt>
      <trkpt lat="45.96132" lon="-1.04407">
        <ele>2</ele>
        <time>2025-01-08T13:38:44Z</time>
      </trkpt>
      <trkpt lat="45.96123" lon="-1.04382">
        <ele>1</ele>
        <time>2025-01-08T13:39:10Z</time>
      </trkpt>
      <trkpt lat="45.96122" lon="-1.04363">
        <ele>1</ele>
        <time>2025-01-08T13:39:28Z</time>
      </trkpt>
      <trkpt lat="45.96156" lon="-1.0412">
        <ele>1</ele>
        <time>2025-01-08T13:43:18Z</time>
      </trkpt>
      <trkpt lat="45.96163" lon="-1.04049">
        <ele>1</ele>
        <time>2025-01-08T13:44:24Z</time>
      </trkpt>
      <trkpt lat="45.96225" lon="-1.03822">
        <ele>2</ele>
        <time>2025-01-08T13:48:11Z</time>
      </trkpt>
      <trkpt lat="45.96242" lon="-1.03777">
        <ele>1</ele>
        <time>2025-01-08T13:48:58Z</time>
      </trkpt>
      <trkpt lat="45.96256" lon="-1.03747">
        <ele>1</ele>
        <time>2025-01-08T13:49:32Z</time>
      </trkpt>
      <trkpt lat="45.96266" lon="-1.03719">
        <ele>2</ele>
        <time>2025-01-08T13:50:01Z</time>
      </trkpt>
      <trkpt lat="45.96275" lon="-1.0367">
        <ele>3</ele>
        <time>2025-01-08T13:50:48Z</time>
      </trkpt>
      <trkpt lat="45.96282" lon="-1.03616">
        <ele>2</ele>
        <time>2025-01-08T13:51:39Z</time>
      </trkpt>
      <trkpt lat="45.96284" lon="-1.03585">
        <ele>1</ele>
        <time>2025-01-08T13:52:08Z</time>
      </trkpt>
      <trkpt lat="45.96277" lon="-1.03529">
        <ele>1</ele>
        <time>2025-01-08T13:53:00Z</time>
      </trkpt>
      <trkpt lat="45.96271" lon="-1.03467">
        <ele>1</ele>
        <time>2025-01-08T13:53:59Z</time>
      </trkpt>
      <trkpt lat="45.96268" lon="-1.03391">
        <ele>2</ele>
        <time>2025-01-08T13:55:09Z</time>
      </trkpt>
      <trkpt lat="45.96276" lon="-1.03343">
        <ele>3</ele>
        <time>2025-01-08T13:55:55Z</time>
      </trkpt>
      <trkpt lat="45.96316" lon="-1.03184">
        <ele>3</ele>
        <time>2025-01-08T13:58:32Z</time>
      </trkpt>
      <trkpt lat="45.96376" lon="-1.02927">
        <ele>3</ele>
        <time>2025-01-08T14:02:43Z</time>
      </trkpt>
      <trkpt lat="45.96425" lon="-1.02693">
        <ele>1</ele>
        <time>2025-01-08T14:06:30Z</time>
      </trkpt>
      <trkpt lat="45.96436" lon="-1.02632">
        <ele>1</ele>
        <time>2025-01-08T14:07:28Z</time>
      </trkpt>
      <trkpt lat="45.96438" lon="-1.0262">
        <ele>1</ele>
        <time>2025-01-08T14:07:40Z</time>
      </trkpt>
      <trkpt lat="45.96468" lon="-1.02636">
        <ele>3</ele>
        <time>2025-01-08T14:08:23Z</time>
      </trkpt>
      <trkpt lat="45.9649" lon="-1.02653">
        <ele>2.8</ele>
        <time>2025-01-08T14:08:56Z</time>
      </trkpt>
      <trkpt lat="45.9671" lon="-1.02828">
        <ele>1</ele>
        <time>2025-01-08T14:14:31Z</time>
      </trkpt>
      <trkpt lat="45.97151" lon="-1.03183">
        <ele>3</ele>
        <time>2025-01-08T14:25:46Z</time>
      </trkpt>
      <trkpt lat="45.97162" lon="-1.03195">
        <ele>3</ele>
        <time>2025-01-08T14:26:04Z</time>
      </trkpt>
      <trkpt lat="45.97485" lon="-1.0345">
        <ele>1</ele>
        <time>2025-01-08T14:34:16Z</time>
      </trkpt>
      <trkpt lat="45.9749" lon="-1.03446">
        <ele>1</ele>
        <time>2025-01-08T14:34:23Z</time>
      </trkpt>
      <trkpt lat="45.97508" lon="-1.03429">
        <ele>3</ele>
        <time>2025-01-08T14:34:52Z</time>
      </trkpt>
      <trkpt lat="45.98164" lon="-1.03013">
        <ele>1</ele>
        <time>2025-01-08T14:50:49Z</time>
      </trkpt>
      <trkpt lat="45.98181" lon="-1.03">
        <ele>1</ele>
        <time>2025-01-08T14:51:14Z</time>
      </trkpt>
      <trkpt lat="45.98181" lon="-1.02999">
        <ele>1</ele>
        <time>2025-01-08T14:51:15Z</time>
      </trkpt>
      <trkpt lat="45.98181" lon="-1.03">
        <ele>1</ele>
        <time>2025-01-08T14:51:16Z</time>
      </trkpt>
      <trkpt lat="45.98224" lon="-1.03033">
        <ele>1</ele>
        <time>2025-01-08T14:52:21Z</time>
      </trkpt>
      <trkpt lat="45.98256" lon="-1.03053">
        <ele>2</ele>
        <time>2025-01-08T14:53:08Z</time>
      </trkpt>
      <trkpt lat="45.98279" lon="-1.03063">
        <ele>3</ele>
        <time>2025-01-08T14:53:40Z</time>
      </trkpt>
      <trkpt lat="45.9829" lon="-1.0307">
        <ele>4</ele>
        <time>2025-01-08T14:53:56Z</time>
      </trkpt>
      <trkpt lat="45.98236" lon="-1.03185">
        <ele>3</ele>
        <time>2025-01-08T14:56:05Z</time>
      </trkpt>
      <trkpt lat="45.982" lon="-1.03269">
        <ele>4</ele>
        <time>2025-01-08T14:57:36Z</time>
      </trkpt>
      <trkpt lat="45.98121" lon="-1.03427">
        <ele>4</ele>
        <time>2025-01-08T15:00:37Z</time>
      </trkpt>
      <trkpt lat="45.9805" lon="-1.03573">
        <ele>3</ele>
        <time>2025-01-08T15:03:22Z</time>
      </trkpt>
      <trkpt lat="45.98036" lon="-1.03631">
        <ele>3</ele>
        <time>2025-01-08T15:04:19Z</time>
      </trkpt>
      <trkpt lat="45.98031" lon="-1.03665">
        <ele>3</ele>
        <time>2025-01-08T15:04:51Z</time>
      </trkpt>
      <trkpt lat="45.9803" lon="-1.03713">
        <ele>3</ele>
        <time>2025-01-08T15:05:36Z</time>
      </trkpt>
      <trkpt lat="45.98019" lon="-1.03764">
        <ele>3</ele>
        <time>2025-01-08T15:06:25Z</time>
      </trkpt>
      <trkpt lat="45.98011" lon="-1.03793">
        <ele>3</ele>
        <time>2025-01-08T15:06:54Z</time>
      </trkpt>
      <trkpt lat="45.97944" lon="-1.039">
        <ele>3</ele>
        <time>2025-01-08T15:09:08Z</time>
      </trkpt>
      <trkpt lat="45.97944" lon="-1.03916">
        <ele>3</ele>
        <time>2025-01-08T15:09:23Z</time>
      </trkpt>
      <trkpt lat="45.97967" lon="-1.03982">
        <ele>4</ele>
        <time>2025-01-08T15:10:31Z</time>
      </trkpt>
      <trkpt lat="45.98" lon="-1.04066">
        <ele>5</ele>
        <time>2025-01-08T15:12:01Z</time>
        <extensions>
          <visugpx:TrkExtension xmlns:visugpx="https://www.visugpx.com/editgpx/">
            <visugpx:node>1</visugpx:node>
            </visugpx:TrkExtension>
        </extensions>
      </trkpt>
    </trkseg>
  </trk>
  <trk>
    <name><![CDATA[Aix_TourIle_7.6km-8176408]]></name>
    <extensions>
      <line xmlns="http://www.topografix.com/GPX/gpx_style/0/2">
        <color>FF0000</color>
        <width>4</width>
      </line>
    </extensions>
    <trkseg>
      <trkpt lat="46.00817" lon="-1.17511">
        <ele>3</ele>
        <time>2025-01-08T15:12:06.000Z</time>
      </trkpt>
      <trkpt lat="46.00872" lon="-1.1745">
        <ele>2</ele>
        <time>2025-01-08T15:13:12.165Z</time>
      </trkpt>
      <trkpt lat="46.00941" lon="-1.17444">
        <ele>3</ele>
        <time>2025-01-08T15:14:24.167Z</time>
      </trkpt>
      <trkpt lat="46.00984" lon="-1.17543">
        <ele>4</ele>
        <time>2025-01-08T15:15:48.076Z</time>
      </trkpt>
      <trkpt lat="46.01032" lon="-1.17523">
        <ele>4</ele>
        <time>2025-01-08T15:16:37.838Z</time>
      </trkpt>
      <trkpt lat="46.01109" lon="-1.17463">
        <ele>6</ele>
        <time>2025-01-08T15:18:11.472Z</time>
      </trkpt>
      <trkpt lat="46.01081" lon="-1.1742">
        <ele>6</ele>
        <time>2025-01-08T15:18:52.240Z</time>
      </trkpt>
      <trkpt lat="46.01174" lon="-1.1725">
        <ele>5</ele>
        <time>2025-01-08T15:21:18.889Z</time>
      </trkpt>
      <trkpt lat="46.0121" lon="-1.17233">
        <ele>5</ele>
        <time>2025-01-08T15:21:56.618Z</time>
      </trkpt>
      <trkpt lat="46.01269" lon="-1.17267">
        <ele>6</ele>
        <time>2025-01-08T15:23:03.076Z</time>
      </trkpt>
      <trkpt lat="46.01285" lon="-1.17294">
        <ele>6</ele>
        <time>2025-01-08T15:23:27.623Z</time>
      </trkpt>
      <trkpt lat="46.01311" lon="-1.17276">
        <ele>5</ele>
        <time>2025-01-08T15:23:53.503Z</time>
      </trkpt>
      <trkpt lat="46.01357" lon="-1.17303">
        <ele>4</ele>
        <time>2025-01-08T15:24:40.035Z</time>
      </trkpt>
      <trkpt lat="46.01428" lon="-1.1736">
        <ele>2</ele>
        <time>2025-01-08T15:25:55.167Z</time>
      </trkpt>
      <trkpt lat="46.01514" lon="-1.17377">
        <ele>2</ele>
        <time>2025-01-08T15:27:21.613Z</time>
      </trkpt>
      <trkpt lat="46.01616" lon="-1.17405">
        <ele>2</ele>
        <time>2025-01-08T15:29:05.018Z</time>
      </trkpt>
      <trkpt lat="46.01777" lon="-1.1739">
        <ele>2</ele>
        <time>2025-01-08T15:31:45.683Z</time>
      </trkpt>
      <trkpt lat="46.01841" lon="-1.17259">
        <ele>5</ele>
        <time>2025-01-08T15:33:46.207Z</time>
      </trkpt>
      <trkpt lat="46.01936" lon="-1.17124">
        <ele>5</ele>
        <time>2025-01-08T15:35:59.119Z</time>
      </trkpt>
      <trkpt lat="46.02009" lon="-1.1689">
        <ele>7</ele>
        <time>2025-01-08T15:39:02.797Z</time>
      </trkpt>
      <trkpt lat="46.02022" lon="-1.16669">
        <ele>6</ele>
        <time>2025-01-08T15:41:33.146Z</time>
      </trkpt>
      <trkpt lat="46.01853" lon="-1.16431">
        <ele>3</ele>
        <time>2025-01-08T15:45:19.593Z</time>
      </trkpt>
      <trkpt lat="46.0185" lon="-1.16208">
        <ele>6</ele>
        <time>2025-01-08T15:48:03.429Z</time>
      </trkpt>
      <trkpt lat="46.01858" lon="-1.16111">
        <ele>7</ele>
        <time>2025-01-08T15:49:14.145Z</time>
      </trkpt>
      <trkpt lat="46.01838" lon="-1.16023">
        <ele>5</ele>
        <time>2025-01-08T15:50:12.436Z</time>
      </trkpt>
      <trkpt lat="46.01826" lon="-1.15599">
        <ele>5</ele>
        <time>2025-01-08T15:55:05.892Z</time>
      </trkpt>
      <trkpt lat="46.01894" lon="-1.15586">
        <ele>9</ele>
        <time>2025-01-08T15:56:28.184Z</time>
      </trkpt>
      <trkpt lat="46.01929" lon="-1.15506">
        <ele>7</ele>
        <time>2025-01-08T15:57:27.822Z</time>
      </trkpt>
      <trkpt lat="46.01987" lon="-1.15526">
        <ele>5</ele>
        <time>2025-01-08T15:58:21.501Z</time>
      </trkpt>
      <trkpt lat="46.02018" lon="-1.15601">
        <ele>9</ele>
        <time>2025-01-08T15:59:36.093Z</time>
      </trkpt>
      <trkpt lat="46.02073" lon="-1.15648">
        <ele>8</ele>
        <time>2025-01-08T16:00:36.816Z</time>
      </trkpt>
      <trkpt lat="46.02173" lon="-1.15869">
        <ele>12</ele>
        <time>2025-01-08T16:03:52.085Z</time>
      </trkpt>
      <trkpt lat="46.02238" lon="-1.16015">
        <ele>10</ele>
        <time>2025-01-08T16:05:46.094Z</time>
      </trkpt>
      <trkpt lat="46.02288" lon="-1.16107">
        <ele>11</ele>
        <time>2025-01-08T16:07:10.029Z</time>
      </trkpt>
      <trkpt lat="46.02346" lon="-1.16152">
        <ele>9</ele>
        <time>2025-01-08T16:08:09.886Z</time>
      </trkpt>
      <trkpt lat="46.02349" lon="-1.16202">
        <ele>11</ele>
        <time>2025-01-08T16:08:51.564Z</time>
      </trkpt>
      <trkpt lat="46.02396" lon="-1.16247">
        <ele>8</ele>
        <time>2025-01-08T16:09:40.742Z</time>
      </trkpt>
      <trkpt lat="46.0241" lon="-1.16305">
        <ele>7</ele>
        <time>2025-01-08T16:10:20.285Z</time>
      </trkpt>
      <trkpt lat="46.02395" lon="-1.16393">
        <ele>12</ele>
        <time>2025-01-08T16:11:41.317Z</time>
      </trkpt>
      <trkpt lat="46.02437" lon="-1.16448">
        <ele>11</ele>
        <time>2025-01-08T16:12:34.895Z</time>
      </trkpt>
      <trkpt lat="46.02428" lon="-1.16511">
        <ele>14</ele>
        <time>2025-01-08T16:13:30.076Z</time>
      </trkpt>
      <trkpt lat="46.02449" lon="-1.16556">
        <ele>11</ele>
        <time>2025-01-08T16:14:02.880Z</time>
      </trkpt>
      <trkpt lat="46.02492" lon="-1.16708">
        <ele>9</ele>
        <time>2025-01-08T16:15:50.465Z</time>
      </trkpt>
      <trkpt lat="46.02446" lon="-1.16683">
        <ele>12</ele>
        <time>2025-01-08T16:16:49.978Z</time>
      </trkpt>
      <trkpt lat="46.0241" lon="-1.16799">
        <ele>10</ele>
        <time>2025-01-08T16:18:11.993Z</time>
      </trkpt>
      <trkpt lat="46.02382" lon="-1.16855">
        <ele>7</ele>
        <time>2025-01-08T16:18:53.745Z</time>
      </trkpt>
      <trkpt lat="46.02381" lon="-1.16902">
        <ele>6</ele>
        <time>2025-01-08T16:19:23.386Z</time>
      </trkpt>
      <trkpt lat="46.02449" lon="-1.1687">
        <ele>7</ele>
        <time>2025-01-08T16:20:37.787Z</time>
      </trkpt>
      <trkpt lat="46.02472" lon="-1.16887">
        <ele>5</ele>
        <time>2025-01-08T16:21:00.314Z</time>
      </trkpt>
      <trkpt lat="46.02436" lon="-1.17044">
        <ele>3</ele>
        <time>2025-01-08T16:22:48.732Z</time>
      </trkpt>
      <trkpt lat="46.02384" lon="-1.17149">
        <ele>3</ele>
        <time>2025-01-08T16:24:17.911Z</time>
      </trkpt>
      <trkpt lat="46.0239" lon="-1.17274">
        <ele>4</ele>
        <time>2025-01-08T16:25:47.695Z</time>
      </trkpt>
      <trkpt lat="46.02428" lon="-1.17396">
        <ele>3</ele>
        <time>2025-01-08T16:27:17.157Z</time>
      </trkpt>
      <trkpt lat="46.02419" lon="-1.1746">
        <ele>3</ele>
        <time>2025-01-08T16:28:02.309Z</time>
      </trkpt>
      <trkpt lat="46.02387" lon="-1.17515">
        <ele>2</ele>
        <time>2025-01-08T16:28:48.989Z</time>
      </trkpt>
      <trkpt lat="46.02326" lon="-1.1751">
        <ele>4</ele>
        <time>2025-01-08T16:29:56.424Z</time>
      </trkpt>
      <trkpt lat="46.02285" lon="-1.17526">
        <ele>4</ele>
        <time>2025-01-08T16:30:38.726Z</time>
      </trkpt>
      <trkpt lat="46.02139" lon="-1.17659">
        <ele>2</ele>
        <time>2025-01-08T16:33:24.784Z</time>
      </trkpt>
      <trkpt lat="46.02011" lon="-1.17621">
        <ele>5</ele>
        <time>2025-01-08T16:35:44.603Z</time>
      </trkpt>
      <trkpt lat="46.01904" lon="-1.17647">
        <ele>3</ele>
        <time>2025-01-08T16:37:26.769Z</time>
      </trkpt>
      <trkpt lat="46.01872" lon="-1.1763">
        <ele>3</ele>
        <time>2025-01-08T16:38:00.735Z</time>
      </trkpt>
      <trkpt lat="46.01789" lon="-1.17637">
        <ele>3</ele>
        <time>2025-01-08T16:39:23.532Z</time>
      </trkpt>
      <trkpt lat="46.01627" lon="-1.17697">
        <ele>3</ele>
        <time>2025-01-08T16:42:10.108Z</time>
      </trkpt>
      <trkpt lat="46.01595" lon="-1.17739">
        <ele>3</ele>
        <time>2025-01-08T16:42:53.226Z</time>
      </trkpt>
      <trkpt lat="46.01518" lon="-1.17759">
        <ele>3</ele>
        <time>2025-01-08T16:44:11.143Z</time>
      </trkpt>
      <trkpt lat="46.01449" lon="-1.17754">
        <ele>2</ele>
        <time>2025-01-08T16:45:16.971Z</time>
      </trkpt>
      <trkpt lat="46.01429" lon="-1.17739">
        <ele>3</ele>
        <time>2025-01-08T16:45:42.812Z</time>
      </trkpt>
      <trkpt lat="46.01335" lon="-1.17781">
        <ele>3</ele>
        <time>2025-01-08T16:47:20.824Z</time>
      </trkpt>
      <trkpt lat="46.01433" lon="-1.17729">
        <ele>3</ele>
        <time>2025-01-08T16:49:04.831Z</time>
      </trkpt>
      <trkpt lat="46.0145" lon="-1.17664">
        <ele>5</ele>
        <time>2025-01-08T16:49:59.589Z</time>
      </trkpt>
      <trkpt lat="46.01415" lon="-1.1763">
        <ele>5</ele>
        <time>2025-01-08T16:50:41.634Z</time>
      </trkpt>
      <trkpt lat="46.01358" lon="-1.17655">
        <ele>6</ele>
        <time>2025-01-08T16:51:44.151Z</time>
      </trkpt>
      <trkpt lat="46.01308" lon="-1.17722">
        <ele>5</ele>
        <time>2025-01-08T16:52:49.198Z</time>
      </trkpt>
      <trkpt lat="46.01239" lon="-1.17707">
        <ele>6</ele>
        <time>2025-01-08T16:54:01.852Z</time>
      </trkpt>
      <trkpt lat="46.01173" lon="-1.177">
        <ele>5</ele>
        <time>2025-01-08T16:55:04.788Z</time>
      </trkpt>
      <trkpt lat="46.01188" lon="-1.17734">
        <ele>5</ele>
        <time>2025-01-08T16:55:32.646Z</time>
      </trkpt>
      <trkpt lat="46.01159" lon="-1.17749">
        <ele>4</ele>
        <time>2025-01-08T16:56:00.470Z</time>
      </trkpt>
      <trkpt lat="46.01125" lon="-1.17725">
        <ele>4</ele>
        <time>2025-01-08T16:56:38.179Z</time>
      </trkpt>
      <trkpt lat="46.01064" lon="-1.17715">
        <ele>3</ele>
        <time>2025-01-08T16:57:36.357Z</time>
      </trkpt>
      <trkpt lat="46.01033" lon="-1.17725">
        <ele>3</ele>
        <time>2025-01-08T16:58:07.993Z</time>
      </trkpt>
      <trkpt lat="46.01023" lon="-1.17774">
        <ele>3</ele>
        <time>2025-01-08T16:58:43.316Z</time>
      </trkpt>
      <trkpt lat="46.01021" lon="-1.17838">
        <ele>2</ele>
        <time>2025-01-08T16:59:24.704Z</time>
      </trkpt>
      <trkpt lat="46.00942" lon="-1.1786">
        <ele>2</ele>
        <time>2025-01-08T17:00:44.833Z</time>
      </trkpt>
      <trkpt lat="46.00924" lon="-1.17854">
        <ele>2</ele>
        <time>2025-01-08T17:01:03.232Z</time>
      </trkpt>
      <trkpt lat="46.00862" lon="-1.17785">
        <ele>3</ele>
        <time>2025-01-08T17:02:24.420Z</time>
      </trkpt>
      <trkpt lat="46.00803" lon="-1.17694">
        <ele>3</ele>
        <time>2025-01-08T17:03:50.523Z</time>
      </trkpt>
      <trkpt lat="46.00794" lon="-1.17611">
        <ele>3</ele>
        <time>2025-01-08T17:04:48.627Z</time>
      </trkpt>
      <trkpt lat="46.00799" lon="-1.17542">
        <ele>3</ele>
        <time>2025-01-08T17:05:36.611Z</time>
      </trkpt>
      <trkpt lat="46.00815" lon="-1.17512">
        <ele>3</ele>
        <time>2025-01-08T17:06:02.773Z</time>
        <extensions>
          <visugpx:TrkExtension xmlns:visugpx="https://www.visugpx.com/editgpx/">
            <visugpx:node>1</visugpx:node>
            </visugpx:TrkExtension>
        </extensions>
      </trkpt>
    </trkseg>
  </trk>
</gpx>